Time;durP1;ratioP1;P1;durP2;ratioP2;P2;SDS_P1;SDS_P2;PMS_P1;PMS_P2;Temp;Humidity;BMP_temperature;BMP_pressure;BME280_temperature;BME280_humidity;BME280_pressure;Samples;Min_cycle;Max_cycle;Signal;HPM_P1;HPM_P2
2022/06/10 00:00:51;;;;;;;11.98;7.85;;;18.70;99.90;;;;;;5019697;28;20057;-73
2022/06/10 00:03:20;;;;;;;12.63;7.57;;;18.60;99.90;;;;;;5019117;28;20046;-73
2022/06/10 00:05:49;;;;;;;12.65;8.10;;;18.60;99.90;;;;;;5018409;28;20049;-73
2022/06/10 00:08:23;;;;;;;15.60;7.97;;;18.60;99.90;;;;;;5015883;28;20099;-73
2022/06/10 00:10:51;;;;;;;14.13;8.77;;;18.60;99.90;;;;;;5016822;28;20149;-72
2022/06/10 00:13:21;;;;;;;12.45;8.73;;;18.50;99.90;;;;;;5020152;28;20038;-73
2022/06/10 00:15:49;;;;;;;11.50;8.05;;;18.50;99.90;;;;;;5035076;28;20140;-73
2022/06/10 00:18:17;;;;;;;12.50;8.20;;;18.60;99.90;;;;;;5018342;28;20049;-73
2022/06/10 00:20:46;;;;;;;15.70;8.35;;;18.60;99.90;;;;;;5017567;28;20609;-73
2022/06/10 00:23:13;;;;;;;14.38;8.98;;;18.50;99.90;;;;;;5020103;28;20041;-73
2022/06/10 00:25:41;;;;;;;14.00;8.57;;;18.60;99.90;;;;;;5033656;28;20419;-72
2022/06/10 00:28:09;;;;;;;12.88;8.27;;;18.60;99.90;;;;;;5020754;28;20053;-73
2022/06/10 00:30:37;;;;;;;14.40;8.02;;;18.60;99.90;;;;;;5020880;28;20083;-73
2022/06/10 00:33:05;;;;;;;14.52;8.90;;;18.60;99.90;;;;;;5019285;28;20539;-73
2022/06/10 00:35:34;;;;;;;13.82;9.10;;;18.50;99.90;;;;;;5002015;28;20060;-73
2022/06/10 00:38:01;;;;;;;12.93;8.02;;;18.50;99.90;;;;;;5016770;28;20033;-73
2022/06/10 00:40:42;;;;;;;13.75;9.30;;;18.60;99.90;;;;;;5002957;28;20049;-72
2022/06/10 00:43:18;;;;;;;13.13;8.95;;;18.50;99.90;;;;;;5017914;28;20505;-72
2022/06/10 00:46:01;;;;;;;14.63;9.52;;;18.50;99.90;;;;;;5019566;28;20201;-72
2022/06/10 00:48:39;;;;;;;14.73;9.43;;;18.50;99.90;;;;;;5035564;28;20128;-73
2022/06/10 00:51:13;;;;;;;15.68;8.73;;;18.50;99.90;;;;;;5018703;28;20507;-73
2022/06/10 00:53:41;;;;;;;14.52;9.32;;;18.50;99.90;;;;;;5018815;28;20129;-73
2022/06/10 00:56:18;;;;;;;12.68;9.27;;;18.50;99.90;;;;;;5017742;28;20034;-74
2022/06/10 00:58:59;;;;;;;15.05;9.85;;;18.50;99.90;;;;;;5018653;28;20057;-73
2022/06/10 01:01:30;;;;;;;16.00;9.38;;;18.50;99.90;;;;;;5018621;28;20037;-73
2022/06/10 01:03:58;;;;;;;14.73;9.43;;;18.50;99.90;;;;;;5020290;28;20076;-73
2022/06/10 01:06:26;;;;;;;16.70;9.85;;;18.50;99.90;;;;;;5018381;28;20057;-73
2022/06/10 01:08:55;;;;;;;14.60;9.70;;;18.50;99.90;;;;;;5034638;28;20140;-73
2022/06/10 01:11:43;;;;;;;15.82;9.70;;;18.50;99.90;;;;;;5020387;28;20053;-73
2022/06/10 01:14:38;;;;;;;15.10;9.85;;;18.50;99.90;;;;;;5017177;28;20061;-73
2022/06/10 01:17:10;;;;;;;17.95;9.65;;;18.50;99.90;;;;;;5016927;28;20116;-74
2022/06/10 01:19:43;;;;;;;16.10;9.38;;;18.50;99.90;;;;;;5019274;28;20560;-72
2022/06/10 01:22:33;;;;;;;16.27;9.75;;;18.40;99.90;;;;;;5017412;28;20040;-73
2022/06/10 01:25:12;;;;;;;17.65;10.25;;;18.40;99.90;;;;;;5019715;28;20077;-73
2022/06/10 01:27:56;;;;;;;14.45;10.07;;;18.30;99.90;;;;;;5018377;28;20048;-73
2022/06/10 01:30:45;;;;;;;14.32;9.40;;;18.40;99.90;;;;;;5019838;28;20038;-73
2022/06/10 01:33:43;;;;;;;13.63;9.10;;;18.40;99.90;;;;;;5020776;28;20038;-73
2022/06/10 01:36:28;;;;;;;15.02;9.23;;;18.40;99.90;;;;;;5052134;28;20655;-73
2022/06/10 01:39:25;;;;;;;13.63;9.23;;;18.30;99.90;;;;;;5020567;28;20034;-73
2022/06/10 01:42:11;;;;;;;14.98;8.90;;;18.40;99.90;;;;;;5021833;28;20042;-74
2022/06/10 01:44:43;;;;;;;12.80;8.00;;;18.40;99.90;;;;;;5019142;28;20053;-74
2022/06/10 01:47:21;;;;;;;14.35;8.32;;;18.50;99.90;;;;;;5021958;28;20049;-74
2022/06/10 01:50:04;;;;;;;12.52;8.05;;;18.50;99.90;;;;;;5022588;28;20045;-74
2022/06/10 01:52:34;;;;;;;15.23;8.23;;;18.50;99.90;;;;;;5020706;28;20137;-74
2022/06/10 01:55:13;;;;;;;12.70;7.63;;;18.60;99.90;;;;;;5020796;28;20052;-74
2022/06/10 01:58:05;;;;;;;11.52;7.70;;;18.60;99.90;;;;;;5023257;28;20049;-74
2022/06/10 02:00:35;;;;;;;11.23;7.63;;;18.50;99.90;;;;;;5021370;28;20412;-74
2022/06/10 02:03:03;;;;;;;10.35;7.55;;;18.50;99.90;;;;;;5023012;28;20045;-74
2022/06/10 02:05:36;;;;;;;10.93;7.63;;;18.50;99.90;;;;;;5002071;28;20221;-74
2022/06/10 02:08:16;;;;;;;10.77;7.20;;;18.50;99.90;;;;;;5021267;28;20446;-74
2022/06/10 02:10:59;;;;;;;12.75;6.53;;;18.50;99.90;;;;;;5022054;28;20046;-74
2022/06/10 02:13:32;;;;;;;12.57;7.68;;;18.50;99.90;;;;;;5020197;28;20045;-74
2022/06/10 02:16:02;;;;;;;17.25;8.00;;;18.50;99.90;;;;;;5019385;28;20405;-74
2022/06/10 02:18:45;;;;;;;13.13;7.60;;;18.50;99.90;;;;;;5021123;28;20501;-74
2022/06/10 02:21:18;;;;;;;;;;;18.50;99.90;;;;;;5018382;28;20123;-74
2022/06/10 02:23:51;;;;;;;13.02;8.23;;;18.40;99.90;;;;;;5019867;28;20025;-75
2022/06/10 02:26:22;;;;;;;13.15;9.40;;;18.40;99.90;;;;;;5020083;28;20045;-74
2022/06/10 02:28:54;;;;;;;13.57;8.25;;;18.30;99.90;;;;;;5021193;28;20049;-75
2022/06/10 02:31:33;;;;;;;21.30;9.20;;;18.30;99.90;;;;;;5020762;28;20072;-74
2022/06/10 02:34:01;;;;;;;12.75;8.90;;;18.30;99.90;;;;;;5021298;28;20669;-74
2022/06/10 02:36:41;;;;;;;15.05;8.77;;;18.30;99.90;;;;;;5019388;28;20061;-74
2022/06/10 02:39:33;;;;;;;14.05;8.63;;;18.40;99.90;;;;;;5020589;28;20046;-74
2022/06/10 02:42:21;;;;;;;15.07;8.68;;;18.30;99.90;;;;;;5019974;28;20100;-74
2022/06/10 02:44:51;;;;;;;13.57;8.45;;;18.30;99.90;;;;;;5020289;28;20122;-74
2022/06/10 02:47:24;;;;;;;13.75;8.68;;;18.30;99.90;;;;;;5037375;28;20810;-74
2022/06/10 02:49:52;;;;;;;13.85;8.43;;;18.30;99.90;;;;;;5023298;28;20092;-75
2022/06/10 02:52:23;;;;;;;15.55;9.45;;;18.30;99.90;;;;;;5023046;28;20897;-75
2022/06/10 02:54:50;;;;;;;13.85;8.68;;;18.30;99.90;;;;;;5021169;28;22266;-74
2022/06/10 02:57:23;;;;;;;13.40;9.13;;;18.20;99.90;;;;;;5036383;28;20041;-75
2022/06/10 03:03:00;;;;;;;13.88;8.95;;;18.30;99.90;;;;;;5036818;28;20060;-75
2022/06/10 03:05:38;;;;;;;14.95;8.02;;;18.20;99.90;;;;;;5023587;28;20404;-74
2022/06/10 03:08:29;;;;;;;14.15;9.13;;;18.20;99.90;;;;;;5023379;28;20598;-74
2022/06/10 03:11:20;;;;;;;16.23;9.10;;;18.20;99.90;;;;;;5049387;28;20511;-75
2022/06/10 03:13:56;;;;;;;17.20;9.00;;;18.10;99.90;;;;;;5021512;28;20052;-74
2022/06/10 03:16:31;;;;;;;14.85;8.93;;;18.10;99.90;;;;;;5020876;28;20063;-74
2022/06/10 03:19:22;;;;;;;12.73;8.85;;;18.10;99.90;;;;;;5021532;28;20164;-74
2022/06/10 03:22:14;;;;;;;13.90;8.63;;;18.10;99.90;;;;;;5020639;28;20047;-74
2022/06/10 03:25:13;;;;;;;13.20;8.35;;;18.10;99.90;;;;;;5021256;28;20099;-73
2022/06/10 03:28:02;;;;;;;15.20;9.10;;;18.20;99.90;;;;;;5024048;28;20037;-74
2022/06/10 03:30:37;;;;;;;12.70;8.23;;;18.20;99.90;;;;;;5020427;28;20120;-74
2022/06/10 03:33:16;;;;;;;13.30;8.15;;;18.30;99.90;;;;;;5021304;28;20055;-74
2022/06/10 03:36:01;;;;;;;15.00;8.50;;;18.20;99.90;;;;;;5022149;28;20053;-73
2022/06/10 03:38:37;;;;;;;13.82;8.82;;;18.20;99.90;;;;;;5036352;28;20049;-74
2022/06/10 03:41:05;;;;;;;12.80;8.13;;;18.20;99.90;;;;;;5023919;28;20489;-74
2022/06/10 03:43:35;;;;;;;13.10;8.88;;;18.20;99.90;;;;;;5022296;28;20384;-74
2022/06/10 03:46:08;;;;;;;12.93;8.55;;;18.20;99.90;;;;;;5021290;28;20500;-74
2022/06/10 03:48:39;;;;;;;14.57;8.68;;;18.30;99.90;;;;;;5021144;28;20034;-74
2022/06/10 03:51:09;;;;;;;14.02;8.63;;;18.30;99.90;;;;;;5020448;28;20062;-74
2022/06/10 03:53:36;;;;;;;13.40;8.57;;;18.30;99.90;;;;;;5000475;28;20051;-74
2022/06/10 03:56:09;;;;;;;12.33;8.33;;;18.30;99.90;;;;;;5020602;28;20058;-74
2022/06/10 03:58:38;;;;;;;12.15;8.27;;;18.30;99.90;;;;;;5019119;28;20052;-74
2022/06/10 04:01:06;;;;;;;17.23;9.35;;;18.30;99.90;;;;;;5017369;28;20045;-74
2022/06/10 04:03:33;;;;;;;21.60;11.50;;;18.30;99.90;;;;;;5018732;28;20041;-74
2022/06/10 04:06:00;;;;;;;12.85;8.70;;;18.30;99.90;;;;;;5030039;28;20030;-74
2022/06/10 04:08:48;;;;;;;13.43;8.65;;;18.30;99.90;;;;;;5019424;28;20114;-74
2022/06/10 04:11:15;;;;;;;18.92;9.48;;;18.30;99.90;;;;;;5018483;28;20042;-75
2022/06/10 04:13:44;;;;;;;12.15;8.63;;;18.40;99.90;;;;;;5051881;28;20041;-75
2022/06/10 04:16:12;;;;;;;13.68;8.98;;;18.40;99.90;;;;;;5020289;28;20048;-74
2022/06/10 04:18:39;;;;;;;18.10;9.57;;;18.40;99.90;;;;;;5019110;28;20046;-74
2022/06/10 04:21:06;;;;;;;16.77;9.27;;;18.40;99.90;;;;;;5020345;28;20120;-74
2022/06/10 04:23:34;;;;;;;15.13;9.50;;;18.40;99.90;;;;;;5020134;28;20084;-74
2022/06/10 04:26:01;;;;;;;12.60;8.55;;;18.50;99.90;;;;;;5036304;28;20045;-74
2022/06/10 04:28:28;;;;;;;10.77;7.85;;;18.40;99.90;;;;;;5020959;28;20049;-74
2022/06/10 04:30:56;;;;;;;14.45;8.15;;;18.40;99.90;;;;;;5019245;28;20549;-74
2022/06/10 04:33:23;;;;;;;11.27;7.93;;;18.40;99.90;;;;;;5020468;28;20075;-74
2022/06/10 04:35:51;;;;;;;10.18;7.50;;;18.50;99.90;;;;;;5020458;28;20049;-74
2022/06/10 04:38:21;;;;;;;10.88;7.20;;;18.50;99.90;;;;;;5035507;28;20050;-75
2022/06/10 04:40:48;;;;;;;10.50;6.60;;;18.70;99.90;;;;;;5017406;28;20693;-74
2022/06/10 04:43:16;;;;;;;12.57;7.30;;;18.80;99.90;;;;;;5020750;28;20077;-74
2022/06/10 04:45:50;;;;;;;11.27;7.03;;;18.90;99.90;;;;;;5019336;28;20400;-74
2022/06/10 04:48:18;;;;;;;10.15;6.75;;;19.00;99.90;;;;;;5019695;28;20045;-74
2022/06/10 04:50:47;;;;;;;10.07;6.95;;;19.00;99.90;;;;;;5017532;28;20515;-74
2022/06/10 04:53:15;;;;;;;10.95;6.03;;;19.10;99.90;;;;;;5019362;28;20396;-74
2022/06/10 04:55:42;;;;;;;9.35;6.50;;;19.10;99.90;;;;;;5017284;28;22914;-74
2022/06/10 04:58:10;;;;;;;10.30;6.22;;;19.00;99.90;;;;;;5018619;28;20034;-74
2022/06/10 05:00:42;;;;;;;8.77;5.75;;;19.00;99.90;;;;;;5005292;28;20145;-74
2022/06/10 05:03:10;;;;;;;10.63;6.10;;;19.10;99.90;;;;;;4992545;28;22592;-75
2022/06/10 05:05:38;;;;;;;8.27;5.85;;;19.10;99.90;;;;;;5022952;28;20068;-73
2022/06/10 05:08:06;;;;;;;9.82;5.93;;;19.00;99.90;;;;;;4993924;28;20856;-74
2022/06/10 05:10:34;;;;;;;8.57;6.15;;;19.10;99.90;;;;;;4995272;28;20053;-74
2022/06/10 05:13:01;;;;;;;11.32;5.65;;;19.10;99.90;;;;;;4995038;28;20098;-75
2022/06/10 05:15:28;;;;;;;12.60;6.88;;;19.00;99.90;;;;;;4970477;28;20059;-75
2022/06/10 05:17:58;;;;;;;10.38;5.80;;;19.10;99.90;;;;;;4996448;28;20057;-75
2022/06/10 05:20:33;;;;;;;7.40;5.38;;;19.10;99.90;;;;;;4990657;28;20045;-74
2022/06/10 05:23:01;;;;;;;8.75;5.68;;;19.10;99.90;;;;;;4993628;28;20160;-74
2022/06/10 05:25:29;;;;;;;10.40;5.97;;;19.10;99.90;;;;;;4997147;28;20045;-75
2022/06/10 05:27:56;;;;;;;8.82;5.63;;;19.10;99.90;;;;;;4995844;28;20187;-74
2022/06/10 05:30:26;;;;;;;7.85;5.20;;;19.00;99.90;;;;;;4996237;28;20053;-74
2022/06/10 05:32:53;;;;;;;8.48;5.40;;;19.10;99.90;;;;;;4996373;28;20057;-74
2022/06/10 05:35:21;;;;;;;9.32;5.10;;;19.20;99.90;;;;;;4994904;28;21077;-75
2022/06/10 05:37:48;;;;;;;7.97;5.82;;;19.20;99.90;;;;;;4994753;28;20053;-74
2022/06/10 05:40:26;;;;;;;8.50;5.37;;;19.10;99.90;;;;;;5011425;28;20049;-75
2022/06/10 05:42:54;;;;;;;7.05;4.88;;;19.10;99.90;;;;;;4994785;28;20290;-73
2022/06/10 05:45:23;;;;;;;8.13;4.88;;;19.20;99.90;;;;;;4995747;28;20330;-74
2022/06/10 05:47:55;;;;;;;8.20;4.97;;;19.20;99.90;;;;;;4998298;28;20050;-75
2022/06/10 05:50:27;;;;;;;9.20;5.72;;;19.30;99.90;;;;;;4976945;28;20095;-74
2022/06/10 05:52:55;;;;;;;7.33;4.40;;;19.30;99.90;;;;;;4988711;28;20080;-74
2022/06/10 05:55:22;;;;;;;8.18;4.45;;;19.30;99.90;;;;;;4995235;28;20057;-75
2022/06/10 05:57:51;;;;;;;8.02;4.50;;;19.40;99.90;;;;;;5010888;28;22535;-74
2022/06/10 06:00:22;;;;;;;8.50;4.40;;;19.50;99.90;;;;;;4995110;28;20096;-74
2022/06/10 06:02:50;;;;;;;7.25;4.63;;;20.10;99.90;;;;;;5009825;28;20053;-74
2022/06/10 06:05:20;;;;;;;6.30;3.75;;;20.30;99.90;;;;;;4980941;28;20057;-75
2022/06/10 06:07:49;;;;;;;6.85;3.30;;;20.50;99.90;;;;;;5014447;28;20052;-73
2022/06/10 06:10:20;;;;;;;5.47;3.60;;;20.90;99.90;;;;;;5009762;28;20073;-75
2022/06/10 06:12:50;;;;;;;5.73;4.33;;;21.10;99.90;;;;;;4993993;28;20053;-73
2022/06/10 06:15:17;;;;;;;4.60;3.25;;;21.20;99.90;;;;;;4994673;28;20307;-74
2022/06/10 06:17:44;;;;;;;5.38;3.25;;;21.30;99.90;;;;;;4988585;28;20084;-75
2022/06/10 06:20:14;;;;;;;3.80;2.90;;;21.40;99.90;;;;;;5012247;28;20413;-75
2022/06/10 06:22:41;;;;;;;5.78;3.65;;;21.50;99.90;;;;;;5011894;28;21938;-74
2022/06/10 06:25:13;;;;;;;4.97;3.05;;;21.30;99.90;;;;;;4995092;28;20124;-74
2022/06/10 06:27:42;;;;;;;4.90;2.83;;;21.20;99.90;;;;;;4997524;28;20057;-74
2022/06/10 06:30:31;;;;;;;6.13;2.40;;;21.40;99.90;;;;;;5011157;28;20050;-74
2022/06/10 06:33:03;;;;;;;5.40;2.47;;;21.70;99.90;;;;;;4991495;28;20045;-73
2022/06/10 06:35:32;;;;;;;;;;;21.70;99.90;;;;;;4993600;28;20056;-75
2022/06/10 06:38:01;;;;;;;4.47;2.30;;;21.60;99.90;;;;;;4992951;28;19929;-73
2022/06/10 06:40:28;;;;;;;4.18;2.50;;;21.60;99.90;;;;;;4978989;28;20050;-74
2022/06/10 06:42:56;;;;;;;4.18;2.30;;;21.70;99.90;;;;;;4995598;28;20060;-74
2022/06/10 06:45:23;;;;;;;4.05;2.80;;;21.80;99.90;;;;;;4988597;28;20055;-73
2022/06/10 06:48:09;;;;;;;7.80;2.38;;;21.70;99.90;;;;;;5012156;28;20061;-75
2022/06/10 06:50:40;;;;;;;4.25;2.47;;;21.70;99.90;;;;;;5009040;28;20068;-75
2022/06/10 06:53:07;;;;;;;4.07;2.65;;;21.40;99.90;;;;;;4977111;28;20061;-75
2022/06/10 06:55:37;;;;;;;4.03;2.38;;;21.10;99.90;;;;;;4991805;28;22463;-74
2022/06/10 06:58:06;;;;;;;4.00;2.38;;;21.10;99.90;;;;;;4992660;28;20053;-74
2022/06/10 07:00:34;;;;;;;6.18;2.67;;;21.30;99.90;;;;;;4992901;28;20943;-74
2022/06/10 07:03:03;;;;;;;3.15;2.17;;;21.30;99.90;;;;;;5022182;28;20076;-74
2022/06/10 07:05:32;;;;;;;4.68;2.40;;;21.60;99.90;;;;;;4985489;28;20049;-75
2022/06/10 07:07:59;;;;;;;4.95;2.60;;;21.90;99.90;;;;;;4989713;28;20053;-75
2022/06/10 07:10:26;;;;;;;5.00;2.22;;;22.00;99.90;;;;;;5000522;28;20057;-77
2022/06/10 07:12:54;;;;;;;4.25;2.50;;;22.20;99.90;;;;;;5003300;28;20061;-75
2022/06/10 07:15:22;;;;;;;3.70;2.42;;;22.00;99.90;;;;;;4995265;28;20512;-75
2022/06/10 07:17:49;;;;;;;4.55;2.10;;;21.70;99.90;;;;;;4984429;28;20056;-75
2022/06/10 07:20:28;;;;;;;4.07;2.65;;;21.70;99.90;;;;;;4986046;28;20053;-75
2022/06/10 07:22:57;;;;;;;8.70;3.80;;;21.60;99.90;;;;;;4999076;28;20057;-77
2022/06/10 07:25:26;;;;;;;4.75;2.47;;;21.40;99.90;;;;;;5000131;28;20106;-76
2022/06/10 07:27:55;;;;;;;6.47;2.65;;;21.40;99.90;;;;;;5014858;28;20049;-75
2022/06/10 07:30:25;;;;;;;5.60;2.55;;;21.40;99.90;;;;;;4989300;28;20053;-75
2022/06/10 07:32:53;;;;;;;6.57;2.42;;;21.30;99.90;;;;;;4999693;28;20053;-76
2022/06/10 07:35:21;;;;;;;6.10;2.90;;;21.20;99.90;;;;;;5003851;28;20056;-74
2022/06/10 07:37:49;;;;;;;5.93;2.65;;;21.20;99.90;;;;;;4999888;28;20052;-75
2022/06/10 07:43:31;;;;;;;4.85;2.40;;;21.20;99.90;;;;;;4998335;28;20046;-76
2022/06/10 07:46:00;;;;;;;9.13;3.22;;;21.30;99.90;;;;;;4998218;28;20050;-74
2022/06/10 07:48:27;;;;;;;4.93;2.50;;;21.30;99.90;;;;;;4976263;28;22351;-73
2022/06/10 07:50:54;;;;;;;3.13;2.17;;;21.30;99.90;;;;;;4997968;28;20057;-73
2022/06/10 07:53:21;;;;;;;5.28;2.47;;;21.40;99.90;;;;;;5013634;28;20971;-73
2022/06/10 07:55:48;;;;;;;4.25;2.33;;;21.50;99.90;;;;;;5013540;28;20060;-75
2022/06/10 07:58:17;;;;;;;7.70;2.22;;;21.50;99.90;;;;;;5001846;28;20052;-75
2022/06/10 08:00:44;;;;;;;7.90;2.15;;;21.60;99.90;;;;;;5015781;28;20180;-74
2022/06/10 08:03:12;;;;;;;3.80;2.40;;;21.50;99.90;;;;;;4995630;28;22386;-74
2022/06/10 08:05:41;;;;;;;4.35;2.45;;;21.40;99.90;;;;;;4996045;28;20057;-76
2022/06/10 08:08:14;;;;;;;3.95;2.45;;;21.50;99.90;;;;;;4998884;28;20053;-74
2022/06/10 08:10:41;;;;;;;4.28;1.95;;;21.40;99.90;;;;;;4999412;28;20052;-74
2022/06/10 08:13:09;;;;;;;6.10;2.45;;;21.50;99.90;;;;;;5000408;28;20049;-75
2022/06/10 08:15:37;;;;;;;5.03;2.35;;;21.50;99.90;;;;;;4992589;28;20064;-76
2022/06/10 08:18:07;;;;;;;3.22;2.63;;;21.50;99.90;;;;;;5003337;28;20053;-76
2022/06/10 08:23:25;;;;;;;3.70;2.45;;;21.60;99.90;;;;;;5002790;28;20103;-74
2022/06/10 08:25:54;;;;;;;4.65;2.33;;;21.70;99.90;;;;;;5017705;28;23739;-75
2022/06/10 08:28:22;;;;;;;5.80;2.42;;;21.70;99.90;;;;;;4999761;28;22501;-76
2022/06/10 08:30:50;;;;;;;4.95;2.50;;;21.70;99.90;;;;;;5002966;28;22459;-75
2022/06/10 08:33:17;;;;;;;4.00;2.13;;;21.80;99.90;;;;;;4981852;28;22440;-75
2022/06/10 08:35:46;;;;;;;9.38;2.50;;;21.80;99.90;;;;;;4999171;28;20053;-76
2022/06/10 08:38:16;;;;;;;5.80;2.50;;;21.80;99.90;;;;;;4997694;28;20050;-74
2022/06/10 08:40:56;;;;;;;2.90;2.25;;;21.90;99.90;;;;;;4992335;28;20049;-75
2022/06/10 08:43:33;;;;;;;6.80;2.88;;;22.00;99.90;;;;;;4983662;28;22349;-76
2022/06/10 08:46:26;;;;;;;5.40;3.10;;;22.00;99.90;;;;;;5000896;28;21085;-76
2022/06/10 08:49:04;;;;;;;6.90;2.55;;;22.20;99.90;;;;;;5000705;28;20061;-76
2022/06/10 08:51:46;;;;;;;5.15;2.47;;;22.50;99.90;;;;;;4998602;28;20689;-76
2022/06/10 08:54:28;;;;;;;4.95;2.47;;;22.60;99.90;;;;;;4998337;28;22451;-76
2022/06/10 08:57:04;;;;;;;5.03;2.40;;;22.80;98.70;;;;;;5002038;28;20057;-76
2022/06/10 08:59:38;;;;;;;4.72;2.00;;;23.30;96.60;;;;;;5003419;28;20048;-75
2022/06/10 09:02:33;;;;;;;3.33;2.47;;;23.70;95.10;;;;;;4993127;28;20050;-75
2022/06/10 09:05:08;;;;;;;3.10;1.77;;;24.00;93.70;;;;;;5002654;28;20056;-75
2022/06/10 09:07:46;;;;;;;3.35;2.30;;;24.10;91.10;;;;;;5000326;28;20073;-75
2022/06/10 09:10:19;;;;;;;4.78;2.47;;;24.20;91.70;;;;;;5000096;28;20058;-75
2022/06/10 09:13:08;;;;;;;2.90;2.00;;;24.50;92.10;;;;;;5011633;28;20061;-75
2022/06/10 09:15:42;;;;;;;17.77;2.58;;;24.60;90.80;;;;;;4998154;28;20061;-75
2022/06/10 09:18:40;;;;;;;4.80;2.05;;;24.60;88.50;;;;;;4988686;28;20061;-72
2022/06/10 09:21:07;;;;;;;8.63;2.38;;;24.70;90.10;;;;;;4959913;28;20920;-75
2022/06/10 09:23:43;;;;;;;5.20;2.20;;;24.80;86.90;;;;;;4991905;28;20049;-75
2022/06/10 09:26:26;;;;;;;6.97;2.80;;;24.90;89.10;;;;;;4975405;28;20159;-74
2022/06/10 09:28:56;;;;;;;3.17;2.20;;;24.90;86.50;;;;;;4985154;28;20283;-75
2022/06/10 09:31:32;;;;;;;4.20;2.30;;;24.90;83.50;;;;;;5014158;28;20136;-75
2022/06/10 09:34:30;;;;;;;7.45;2.22;;;24.90;84.40;;;;;;4988516;28;20164;-75
2022/06/10 09:37:12;;;;;;;5.20;2.58;;;24.80;86.40;;;;;;4991125;28;20065;-75
2022/06/10 09:40:36;;;;;;;6.05;2.70;;;25.10;88.80;;;;;;5017047;28;20524;-74
2022/06/10 09:43:12;;;;;;;3.75;2.63;;;25.20;85.70;;;;;;4984170;28;20049;-75
2022/06/10 09:46:04;;;;;;;4.05;2.50;;;25.20;87.80;;;;;;5001003;28;20049;-75
2022/06/10 09:49:05;;;;;;;4.25;2.50;;;25.20;87.90;;;;;;5016923;28;20088;-75
2022/06/10 09:51:50;;;;;;;2.58;2.05;;;25.10;87.50;;;;;;4984538;28;22393;-74
2022/06/10 09:54:25;;;;;;;4.50;2.53;;;25.40;84.40;;;;;;5017911;28;20053;-73
2022/06/10 09:57:30;;;;;;;3.88;2.28;;;25.40;84.00;;;;;;5009305;28;20064;-74
2022/06/10 10:00:12;;;;;;;3.22;2.10;;;25.50;83.10;;;;;;5003966;28;20050;-75
2022/06/10 10:03:09;;;;;;;10.00;2.50;;;25.40;79.60;;;;;;5007876;28;20046;-75
2022/06/10 10:05:44;;;;;;;4.63;2.20;;;25.40;83.00;;;;;;4996520;28;20778;-75
2022/06/10 10:08:31;;;;;;;3.05;2.00;;;25.40;82.80;;;;;;5004686;28;20801;-75
2022/06/10 10:11:18;;;;;;;6.10;2.53;;;25.40;83.70;;;;;;5002913;28;20068;-74
2022/06/10 10:13:55;;;;;;;5.55;2.40;;;25.60;84.10;;;;;;5024220;28;20060;-74
2022/06/10 10:16:40;;;;;;;4.35;2.00;;;25.50;85.40;;;;;;4985647;28;20050;-74
2022/06/10 10:19:23;;;;;;;6.28;2.45;;;25.50;81.50;;;;;;4991304;28;20066;-73
2022/06/10 10:22:16;;;;;;;5.15;2.58;;;25.60;83.00;;;;;;4999160;28;20120;-74
2022/06/10 10:24:44;;;;;;;6.28;2.35;;;25.80;80.80;;;;;;5009913;28;20148;-74
2022/06/10 10:27:26;;;;;;;3.75;2.03;;;25.70;81.60;;;;;;5002509;28;20104;-76
2022/06/10 10:30:13;;;;;;;14.27;2.67;;;25.80;80.00;;;;;;5004509;28;20057;-75
2022/06/10 10:32:44;;;;;;;5.28;2.53;;;25.90;81.30;;;;;;5005472;28;21392;-76
2022/06/10 10:35:49;;;;;;;2.88;1.90;;;25.80;84.20;;;;;;4996321;28;20053;-73
2022/06/10 10:38:41;;;;;;;3.90;2.40;;;25.90;80.70;;;;;;4928497;28;20074;-74
2022/06/10 10:41:26;;;;;;;4.82;2.75;;;26.00;80.60;;;;;;5001585;28;20787;-75
2022/06/10 10:43:58;;;;;;;3.58;2.05;;;26.10;80.00;;;;;;5022419;28;20080;-75
2022/06/10 10:46:25;;;;;;;;;;;25.90;79.30;;;;;;5011098;28;20057;-73
2022/06/10 10:48:57;;;;;;;4.78;2.40;;;26.20;79.20;;;;;;4990737;28;19980;-73
2022/06/10 10:51:46;;;;;;;3.65;2.10;;;26.10;75.30;;;;;;4997215;28;20054;-76
2022/06/10 10:54:29;;;;;;;5.57;2.53;;;26.10;78.30;;;;;;5018166;28;20061;-74
2022/06/10 10:56:58;;;;;;;4.10;2.05;;;26.10;76.10;;;;;;4995858;28;20049;-73
2022/06/10 10:59:39;;;;;;;5.00;2.58;;;26.10;75.30;;;;;;4990318;28;23843;-75
2022/06/10 11:02:40;;;;;;;2.45;1.83;;;26.20;74.50;;;;;;5011602;28;20060;-74
2022/06/10 11:05:19;;;;;;;3.28;2.15;;;26.20;76.60;;;;;;4977297;28;20192;-73
2022/06/10 11:07:46;;;;;;;4.47;2.30;;;26.20;76.40;;;;;;4982807;28;20106;-75
2022/06/10 11:10:23;;;;;;;4.35;2.80;;;26.20;74.20;;;;;;4966747;28;20053;-74
2022/06/10 11:12:51;;;;;;;5.25;2.17;;;26.30;74.90;;;;;;5018575;28;22443;-75
2022/06/10 11:15:28;;;;;;;6.57;2.53;;;26.40;72.00;;;;;;4985303;28;20062;-77
2022/06/10 11:17:58;;;;;;;4.00;1.88;;;26.50;74.00;;;;;;5000707;28;20594;-75
2022/06/10 11:20:44;;;;;;;3.10;1.88;;;26.50;70.50;;;;;;5020678;28;22559;-75
2022/06/10 11:23:26;;;;;;;5.90;2.17;;;26.50;69.70;;;;;;4996041;28;20520;-73
2022/06/10 11:26:05;;;;;;;3.67;2.25;;;26.50;69.70;;;;;;4990382;28;20050;-75
2022/06/10 11:28:39;;;;;;;2.95;2.08;;;26.50;70.10;;;;;;5030745;28;20054;-74
2022/06/10 11:31:40;;;;;;;4.90;2.13;;;26.60;71.30;;;;;;5001551;28;20049;-75
2022/06/10 11:34:25;;;;;;;3.85;1.98;;;26.60;70.90;;;;;;5001903;28;20064;-75
2022/06/10 11:36:54;;;;;;;3.45;1.98;;;26.70;70.20;;;;;;4973536;28;20104;-75
2022/06/10 11:39:33;;;;;;;4.47;2.40;;;26.60;68.50;;;;;;5001931;28;20091;-75
2022/06/10 11:42:17;;;;;;;3.40;1.85;;;26.50;69.10;;;;;;5002510;28;20054;-74
2022/06/10 11:44:53;;;;;;;5.38;1.70;;;26.70;69.60;;;;;;5003723;28;20042;-74
2022/06/10 11:47:34;;;;;;;2.10;1.50;;;26.60;67.00;;;;;;5001940;28;21186;-74
2022/06/10 11:50:15;;;;;;;2.47;1.30;;;26.80;66.00;;;;;;5003060;28;20084;-75
2022/06/10 11:52:57;;;;;;;3.67;1.77;;;27.00;65.60;;;;;;5020373;28;20853;-74
2022/06/10 11:55:46;;;;;;;2.03;1.15;;;27.10;66.20;;;;;;5007511;28;20100;-75
2022/06/10 12:01:24;;;;;;;2.42;1.60;;;26.60;67.30;;;;;;5001774;28;20046;-77
2022/06/10 12:04:07;;;;;;;4.97;1.60;;;26.40;65.30;;;;;;5022663;28;20075;-75
2022/06/10 12:06:43;;;;;;;3.83;1.80;;;26.40;67.20;;;;;;4989375;28;20045;-75
2022/06/10 12:09:26;;;;;;;3.92;1.83;;;26.30;68.70;;;;;;5015884;28;20060;-73
2022/06/10 12:12:05;;;;;;;2.78;2.10;;;26.30;67.00;;;;;;4998664;28;22372;-74
2022/06/10 12:14:42;;;;;;;2.83;2.08;;;26.30;70.00;;;;;;4991529;28;20057;-73
2022/06/10 12:17:16;;;;;;;4.13;1.95;;;26.20;70.30;;;;;;4999946;28;20073;-75
2022/06/10 12:19:48;;;;;;;3.67;1.63;;;26.10;69.70;;;;;;4981284;28;22552;-75
2022/06/10 12:22:15;;;;;;;5.43;2.05;;;26.10;69.10;;;;;;5003125;28;22567;-74
2022/06/10 12:24:47;;;;;;;3.13;1.80;;;26.00;69.40;;;;;;4994011;28;20112;-75
2022/06/10 12:27:19;;;;;;;4.78;1.52;;;26.40;70.30;;;;;;4999853;28;20104;-74
2022/06/10 12:30:04;;;;;;;3.38;1.98;;;26.40;70.00;;;;;;5018253;28;20064;-75
2022/06/10 12:33:02;;;;;;;4.10;2.00;;;26.30;70.40;;;;;;4997267;28;20057;-73
2022/06/10 12:35:34;;;;;;;10.05;2.72;;;26.30;69.40;;;;;;4986039;28;22600;-75
2022/06/10 12:38:21;;;;;;;3.78;1.67;;;26.40;70.40;;;;;;5016040;28;20049;-75
2022/06/10 12:40:54;;;;;;;3.70;1.80;;;26.30;69.50;;;;;;5004088;28;21106;-75
2022/06/10 12:43:29;;;;;;;3.30;1.85;;;26.30;69.50;;;;;;4996973;28;20073;-74
2022/06/10 12:46:22;;;;;;;2.70;2.00;;;26.50;70.80;;;;;;4981911;28;20237;-74
2022/06/10 12:48:51;;;;;;;4.63;2.40;;;26.80;70.40;;;;;;5015776;28;20045;-75
2022/06/10 12:51:21;;;;;;;3.80;1.73;;;27.00;71.20;;;;;;5014483;28;20049;-74
2022/06/10 12:54:01;;;;;;;3.28;2.00;;;27.20;69.70;;;;;;5012669;28;20060;-75
2022/06/10 12:56:32;;;;;;;2.72;2.22;;;27.10;69.00;;;;;;4999017;28;20420;-74
2022/06/10 12:59:06;;;;;;;4.50;2.30;;;27.30;70.50;;;;;;5001904;28;20626;-73
2022/06/10 13:01:33;;;;;;;3.35;2.03;;;27.20;69.20;;;;;;4998144;28;20045;-74
2022/06/10 13:04:04;;;;;;;5.05;2.33;;;27.30;70.20;;;;;;4995192;28;20049;-74
2022/06/10 13:06:43;;;;;;;4.03;2.28;;;27.30;71.10;;;;;;4980508;28;20064;-74
2022/06/10 13:09:10;;;;;;;5.45;2.03;;;27.20;70.50;;;;;;4991609;28;20054;-73
2022/06/10 13:11:37;;;;;;;3.03;2.10;;;27.10;70.70;;;;;;4993536;28;20053;-74
2022/06/10 13:14:34;;;;;;;3.90;1.95;;;26.80;70.50;;;;;;4998479;28;20053;-75
2022/06/10 13:17:25;;;;;;;6.13;2.28;;;26.60;70.10;;;;;;5008225;28;20111;-75
2022/06/10 13:19:54;;;;;;;2.08;1.60;;;26.60;69.40;;;;;;4986469;28;22449;-73
2022/06/10 13:22:22;;;;;;;3.22;1.90;;;26.50;70.10;;;;;;4989224;28;20126;-75
2022/06/10 13:24:53;;;;;;;3.35;2.00;;;26.40;68.40;;;;;;4985845;28;20863;-74
2022/06/10 13:27:29;;;;;;;3.47;2.30;;;26.50;67.70;;;;;;4993776;28;22023;-74
2022/06/10 13:30:15;;;;;;;2.83;2.05;;;26.60;69.60;;;;;;5006133;28;20049;-75
2022/06/10 13:32:50;;;;;;;2.55;2.17;;;26.60;71.60;;;;;;5016516;28;20058;-76
2022/06/10 13:35:21;;;;;;;3.97;2.10;;;26.80;70.40;;;;;;4998779;28;20057;-74